createdAt,value
2023-01-29T00:00:10.283Z,22.80
2023-01-29T00:02:37.861Z,23.10
2023-01-29T00:05:25.500Z,23.40
2023-01-29T00:07:53.399Z,24.70
2023-01-29T00:10:20.399Z,25.20
2023-01-29T00:12:47.981Z,24.80
2023-01-29T00:15:15.020Z,24.00
2023-01-29T00:17:42.019Z,24.40
2023-01-29T00:20:09.921Z,24.20
2023-01-29T00:22:36.991Z,24.60
2023-01-29T00:25:04.302Z,25.00
2023-01-29T00:27:31.620Z,24.40
2023-01-29T00:30:12.993Z,24.10
2023-01-29T00:32:40.907Z,24.60
2023-01-29T00:35:09.341Z,24.40
2023-01-29T00:37:36.508Z,24.30
2023-01-29T00:40:04.930Z,24.20
2023-01-29T00:42:50.492Z,24.70
2023-01-29T00:45:17.659Z,24.40
2023-01-29T00:47:44.692Z,23.70
2023-01-29T00:50:12.363Z,23.70
2023-01-29T00:52:43.013Z,23.70
2023-01-29T00:55:11.033Z,23.70
2023-01-29T00:57:38.959Z,24.30
2023-01-29T01:00:09.942Z,24.00
2023-01-29T01:02:55.502Z,24.80
2023-01-29T01:05:23.012Z,25.10
2023-01-29T01:07:52.744Z,25.20
2023-01-29T01:10:26.127Z,25.50
2023-01-29T01:12:59.161Z,25.90
2023-01-29T01:15:29.563Z,26.20
2023-01-29T01:17:59.711Z,26.20
2023-01-29T01:20:30.735Z,26.80
2023-01-29T01:22:57.641Z,26.50
2023-01-29T01:25:26.661Z,25.10
2023-01-29T01:30:26.636Z,25.40
2023-01-29T01:32:53.827Z,25.60
2023-01-29T01:35:21.175Z,26.00
2023-01-29T01:37:48.313Z,25.90
2023-01-29T01:40:19.612Z,25.60
2023-01-29T01:42:52.095Z,25.90
2023-01-29T01:45:35.849Z,25.50
2023-01-29T01:48:19.753Z,25.50
2023-01-29T01:51:06.454Z,25.20
2023-01-29T01:54:02.240Z,25.60
2023-01-29T01:56:38.871Z,25.20
2023-01-29T01:59:10.145Z,25.30
2023-01-29T02:01:41.173Z,24.90
2023-01-29T02:04:29.732Z,25.70
2023-01-29T02:07:18.204Z,24.30
2023-01-29T02:10:00.811Z,24.20
2023-01-29T02:12:31.280Z,25.00
2023-01-29T02:14:58.334Z,26.70
2023-01-29T02:17:25.807Z,26.70
2023-01-29T02:20:02.997Z,27.40
2023-01-29T02:22:47.817Z,27.00
2023-01-29T02:25:36.111Z,26.70
2023-01-29T02:28:13.869Z,26.60
2023-01-29T02:31:31.429Z,26.40
2023-01-29T02:34:18.729Z,26.10
2023-01-29T02:37:09.916Z,25.30
2023-01-29T02:39:42.213Z,26.10
2023-01-29T02:42:31.501Z,26.20
2023-01-29T02:45:06.709Z,25.70
2023-01-29T02:47:51.357Z,25.20
2023-01-29T02:50:41.778Z,25.40
2023-01-29T02:53:25.846Z,25.30
2023-01-29T02:56:02.437Z,25.60
2023-01-29T02:59:14.811Z,25.40
2023-01-29T03:02:02.673Z,25.80
2023-01-29T03:04:39.262Z,25.40
2023-01-29T03:07:33.113Z,25.70
2023-01-29T03:10:02.360Z,25.80
2023-01-29T03:12:36.995Z,25.00
2023-01-29T03:15:15.272Z,24.80
2023-01-29T03:17:58.881Z,25.60
2023-01-29T03:20:32.959Z,26.60
2023-01-29T03:23:08.217Z,25.70
2023-01-29T03:25:54.740Z,24.40
2023-01-29T03:28:41.852Z,24.40
2023-01-29T03:31:30.858Z,24.80
2023-01-29T03:34:24.702Z,26.30
2023-01-29T03:37:02.132Z,26.90
2023-01-29T03:39:30.056Z,27.70
2023-01-29T03:42:17.897Z,26.30
2023-01-29T03:45:05.606Z,26.10
2023-01-29T03:47:42.239Z,27.10
2023-01-29T03:50:44.556Z,25.90
2023-01-29T03:53:25.611Z,26.60
2023-01-29T03:56:07.603Z,27.10
2023-01-29T03:58:41.245Z,28.10
2023-01-29T04:01:20.753Z,28.50
2023-01-29T04:03:56.962Z,27.80
2023-01-29T04:06:32.792Z,26.70
2023-01-29T04:09:15.329Z,26.80
2023-01-29T04:11:49.018Z,27.00
2023-01-29T04:14:16.852Z,27.30
2023-01-29T04:16:51.217Z,27.50
2023-01-29T04:19:18.500Z,27.40
2023-01-29T04:21:47.284Z,26.70
2023-01-29T04:24:15.501Z,27.30
2023-01-29T04:26:56.106Z,27.90
2023-01-29T04:29:32.134Z,28.20
2023-01-29T04:32:26.002Z,28.00
2023-01-29T04:35:00.454Z,27.20
2023-01-29T04:37:44.940Z,27.40
2023-01-29T04:40:37.996Z,26.60
2023-01-29T04:43:22.664Z,26.60
2023-01-29T04:46:13.637Z,26.40
2023-01-29T04:49:17.578Z,26.60
2023-01-29T04:51:56.456Z,26.60
2023-01-29T04:54:37.531Z,27.10
2023-01-29T04:57:11.650Z,27.30
2023-01-29T05:00:05.686Z,26.80
2023-01-29T05:02:38.039Z,26.60
2023-01-29T05:05:07.450Z,26.30
2023-01-29T05:07:37.774Z,26.30
2023-01-29T05:10:10.452Z,26.10
2023-01-29T05:12:39.753Z,26.60
2023-01-29T05:15:12.654Z,27.30
2023-01-29T05:17:39.853Z,28.70
2023-01-29T05:20:07.418Z,27.90
2023-01-29T05:22:39.697Z,27.60
2023-01-29T05:25:23.904Z,26.90
2023-01-29T05:28:12.017Z,27.00
2023-01-29T05:30:40.110Z,27.20
2023-01-29T05:33:22.008Z,27.20
2023-01-29T05:35:50.109Z,27.90
2023-01-29T05:38:18.126Z,27.20
2023-01-29T05:40:45.653Z,27.40
2023-01-29T05:43:23.864Z,27.10
2023-01-29T05:45:59.179Z,26.20
2023-01-29T05:48:29.101Z,26.30
2023-01-29T05:51:01.607Z,25.90
2023-01-29T05:53:32.559Z,25.30
2023-01-29T05:56:02.521Z,25.30
2023-01-29T05:58:32.127Z,26.10
2023-01-29T06:01:07.666Z,25.40
2023-01-29T06:03:37.392Z,25.70
2023-01-29T06:06:04.591Z,25.70
2023-01-29T06:08:31.866Z,25.30
2023-01-29T06:10:58.990Z,24.60
2023-01-29T06:13:26.651Z,24.80
2023-01-29T06:15:53.821Z,24.90
2023-01-29T06:18:20.863Z,24.80
2023-01-29T06:20:47.991Z,24.70
2023-01-29T06:23:15.052Z,24.40
2023-01-29T06:25:42.124Z,24.20
2023-01-29T06:28:09.224Z,24.70
2023-01-29T06:30:36.571Z,24.60
2023-01-29T06:33:03.654Z,24.50
2023-01-29T06:35:30.906Z,24.20
2023-01-29T06:37:57.875Z,24.60
2023-01-29T06:40:24.900Z,25.10
2023-01-29T06:42:51.986Z,24.80
2023-01-29T06:45:19.264Z,24.90
2023-01-29T06:47:46.313Z,25.50
2023-01-29T06:50:13.539Z,24.50
2023-01-29T06:52:40.687Z,24.70
2023-01-29T06:55:08.354Z,25.00
2023-01-29T06:57:35.510Z,24.90
2023-01-29T07:00:02.558Z,24.70
2023-01-29T07:02:29.814Z,24.90
2023-01-29T07:04:56.913Z,24.80
2023-01-29T07:07:23.948Z,25.50
2023-01-29T07:09:50.942Z,25.40
2023-01-29T07:12:18.097Z,25.30
2023-01-29T07:14:45.685Z,25.40
2023-01-29T07:17:12.977Z,26.10
2023-01-29T07:19:40.025Z,26.10
2023-01-29T07:22:07.039Z,25.90
2023-01-29T07:24:34.268Z,25.20
2023-01-29T07:27:01.416Z,24.90
2023-01-29T07:29:28.766Z,24.60
2023-01-29T07:31:55.841Z,24.90
2023-01-29T07:34:22.974Z,25.70
2023-01-29T07:36:52.798Z,25.00
2023-01-29T07:39:19.807Z,25.10
2023-01-29T07:41:46.945Z,26.20
2023-01-29T07:44:13.924Z,25.80
2023-01-29T07:46:41.000Z,25.10
2023-01-29T07:49:08.977Z,24.90
2023-01-29T07:51:35.975Z,24.10
2023-01-29T07:54:02.965Z,23.70
2023-01-29T07:56:30.082Z,23.50
2023-01-29T07:58:57.147Z,23.70
2023-01-29T08:01:24.349Z,23.80
2023-01-29T08:03:52.209Z,23.90
2023-01-29T08:06:19.721Z,24.70
2023-01-29T08:08:46.990Z,24.70
2023-01-29T08:11:14.134Z,24.80
2023-01-29T08:13:41.401Z,24.10
2023-01-29T08:16:08.960Z,24.30
2023-01-29T08:18:37.880Z,24.70
2023-01-29T08:21:05.112Z,23.50
2023-01-29T08:23:32.419Z,24.10
2023-01-29T08:26:00.021Z,25.00
2023-01-29T08:28:27.270Z,24.40
2023-01-29T08:30:54.889Z,25.00
2023-01-29T08:33:29.906Z,25.50
2023-01-29T08:36:04.484Z,24.90
2023-01-29T08:38:31.457Z,24.80
2023-01-29T08:40:58.488Z,24.90
2023-01-29T08:43:26.175Z,25.00
2023-01-29T08:45:53.174Z,25.20
2023-01-29T08:48:20.601Z,24.60
2023-01-29T08:50:47.954Z,24.10
2023-01-29T08:53:15.174Z,24.40
2023-01-29T08:55:42.343Z,24.70
2023-01-29T08:58:11.852Z,24.00
2023-01-29T09:00:39.396Z,23.70
2023-01-29T09:03:08.049Z,24.60
2023-01-29T09:05:36.659Z,24.70
2023-01-29T09:08:04.488Z,25.10
2023-01-29T09:10:31.758Z,25.00
2023-01-29T09:12:59.322Z,24.70
2023-01-29T09:15:26.738Z,24.70
2023-01-29T09:17:53.873Z,24.60
2023-01-29T09:20:21.243Z,24.70
2023-01-29T09:22:49.458Z,24.90
2023-01-29T09:25:17.108Z,24.50
2023-01-29T09:27:44.297Z,23.60
2023-01-29T09:30:12.073Z,23.60
2023-01-29T09:32:55.023Z,24.10
2023-01-29T09:35:23.850Z,24.90
2023-01-29T09:37:52.239Z,24.70
2023-01-29T09:40:32.095Z,24.50
2023-01-29T09:43:08.452Z,25.30
2023-01-29T09:45:37.205Z,25.20
2023-01-29T09:48:05.952Z,25.30
2023-01-29T09:50:44.980Z,25.50
2023-01-29T09:53:39.248Z,25.10
2023-01-29T09:56:17.321Z,24.60
2023-01-29T09:58:44.839Z,25.20
2023-01-29T10:01:23.625Z,25.50
2023-01-29T10:04:12.275Z,25.10
2023-01-29T10:06:48.302Z,25.80
2023-01-29T10:09:52.693Z,25.80
2023-01-29T10:12:50.819Z,24.80
2023-01-29T10:15:39.798Z,24.70
2023-01-29T10:18:15.498Z,25.50
2023-01-29T10:21:11.482Z,25.30
2023-01-29T10:23:42.263Z,25.70
2023-01-29T10:26:13.468Z,25.50
2023-01-29T10:28:46.786Z,25.50
2023-01-29T10:31:33.398Z,25.60
2023-01-29T10:34:03.532Z,24.70
2023-01-29T10:36:42.875Z,24.50
2023-01-29T10:39:19.289Z,24.50
2023-01-29T10:41:58.836Z,24.60
2023-01-29T10:44:50.258Z,24.80
2023-01-29T10:47:35.243Z,25.10
2023-01-29T10:50:21.210Z,25.70
2023-01-29T10:52:59.130Z,25.60
2023-01-29T10:56:21.923Z,25.20
2023-01-29T10:59:01.688Z,25.60
2023-01-29T11:01:28.897Z,25.30
2023-01-29T11:04:07.538Z,25.70
2023-01-29T11:06:36.231Z,25.90
2023-01-29T11:09:28.896Z,25.80
2023-01-29T11:12:16.775Z,26.40
2023-01-29T11:14:58.976Z,26.10
2023-01-29T11:17:26.653Z,26.30
2023-01-29T11:19:57.959Z,26.30
2023-01-29T11:22:30.185Z,25.30
2023-01-29T11:25:19.827Z,24.60
2023-01-29T11:27:58.241Z,24.80
2023-01-29T11:30:41.409Z,25.30
2023-01-29T11:33:23.928Z,26.00
2023-01-29T11:35:52.823Z,26.00
2023-01-29T11:38:24.899Z,26.60
2023-01-29T11:40:52.856Z,26.90
2023-01-29T11:43:22.956Z,25.90
2023-01-29T11:45:53.537Z,25.60
2023-01-29T11:48:23.452Z,25.90
2023-01-29T11:51:01.190Z,26.00
2023-01-29T11:53:35.659Z,26.00
2023-01-29T11:56:07.239Z,26.20
2023-01-29T11:58:35.698Z,26.00
2023-01-29T12:01:03.992Z,25.40
2023-01-29T12:03:44.094Z,25.60
2023-01-29T12:06:21.976Z,24.60
2023-01-29T12:09:00.563Z,24.20
2023-01-29T12:11:37.709Z,24.60
2023-01-29T12:14:20.573Z,24.90
2023-01-29T12:17:21.680Z,24.50
2023-01-29T12:20:11.353Z,23.70
2023-01-29T12:22:50.670Z,23.50
2023-01-29T12:26:09.111Z,24.20
2023-01-29T12:28:57.237Z,24.90
2023-01-29T12:31:37.187Z,24.20
2023-01-29T12:34:31.971Z,23.70
2023-01-29T12:37:21.122Z,23.90
2023-01-29T12:39:52.287Z,23.80
2023-01-29T12:42:22.744Z,22.90
2023-01-29T12:44:58.689Z,23.80
2023-01-29T12:47:35.981Z,23.10
2023-01-29T12:50:08.317Z,22.40
2023-01-29T12:52:43.655Z,22.90
2023-01-29T12:55:23.362Z,23.40
2023-01-29T12:58:01.957Z,23.70
2023-01-29T13:00:35.423Z,24.30
2023-01-29T13:03:19.829Z,24.90
2023-01-29T13:05:52.550Z,23.60
2023-01-29T13:08:27.782Z,25.00
2023-01-29T13:10:56.442Z,24.50
2023-01-29T13:13:37.095Z,23.10
2023-01-29T13:16:07.717Z,22.90
2023-01-29T13:18:55.003Z,22.80
2023-01-29T13:21:29.605Z,22.20
2023-01-29T13:24:09.470Z,22.90
2023-01-29T13:26:37.409Z,23.40
2023-01-29T13:29:05.652Z,24.20
2023-01-29T13:31:39.192Z,24.90
2023-01-29T13:34:31.704Z,24.10
2023-01-29T13:37:03.034Z,23.70
2023-01-29T13:39:35.139Z,23.50
2023-01-29T13:42:15.066Z,23.10
2023-01-29T13:44:47.344Z,22.80
2023-01-29T13:47:27.178Z,23.60
2023-01-29T13:50:14.446Z,23.50
2023-01-29T13:52:56.236Z,23.00
2023-01-29T13:55:31.432Z,22.70
2023-01-29T13:58:03.687Z,23.40
2023-01-29T14:00:33.826Z,23.80
2023-01-29T14:03:00.857Z,23.60
2023-01-29T14:05:30.996Z,24.10
2023-01-29T14:08:02.043Z,23.40
2023-01-29T14:10:31.451Z,23.30
2023-01-29T14:13:05.261Z,23.30
2023-01-29T14:15:34.757Z,24.00
2023-01-29T14:18:08.974Z,23.80
2023-01-29T14:20:46.071Z,24.10
2023-01-29T14:23:31.731Z,24.30
2023-01-29T14:26:01.236Z,24.00
2023-01-29T14:28:31.051Z,25.30
2023-01-29T14:30:59.100Z,25.00
2023-01-29T14:33:41.719Z,24.70
2023-01-29T14:36:15.215Z,24.40
2023-01-29T14:38:53.827Z,25.50
2023-01-29T14:41:31.519Z,25.70
2023-01-29T14:44:35.905Z,25.70
2023-01-29T14:47:03.795Z,24.60
2023-01-29T14:49:50.311Z,24.20
2023-01-29T14:52:19.254Z,24.30
2023-01-29T14:54:48.631Z,24.20
2023-01-29T14:57:18.317Z,24.60
2023-01-29T15:00:00.817Z,24.00
2023-01-29T15:02:37.274Z,23.80
2023-01-29T15:05:11.610Z,23.90
2023-01-29T15:08:01.039Z,23.60
2023-01-29T15:10:43.454Z,24.00
2023-01-29T15:13:22.328Z,24.00
2023-01-29T15:16:06.510Z,23.90
2023-01-29T15:18:41.983Z,24.30
2023-01-29T15:21:17.950Z,24.30
2023-01-29T15:23:46.042Z,24.70
2023-01-29T15:26:19.787Z,23.60
2023-01-29T15:29:03.547Z,23.10
2023-01-29T15:31:31.807Z,22.50
2023-01-29T15:34:05.076Z,22.90
2023-01-29T15:36:33.002Z,23.20
2023-01-29T15:39:12.340Z,23.30
2023-01-29T15:41:39.577Z,23.50
2023-01-29T15:44:18.954Z,23.50
2023-01-29T15:46:58.987Z,23.80
2023-01-29T15:49:35.216Z,23.00
2023-01-29T15:52:35.512Z,22.10
2023-01-29T15:55:06.355Z,22.10
2023-01-29T15:57:41.632Z,22.90
2023-01-29T16:00:20.371Z,23.10
2023-01-29T16:02:47.523Z,23.70
2023-01-29T16:05:22.282Z,23.80
2023-01-29T16:07:50.948Z,24.10
2023-01-29T16:10:20.965Z,25.60
2023-01-29T16:12:53.293Z,25.70
2023-01-29T16:15:37.084Z,23.80
2023-01-29T16:18:20.373Z,24.30
2023-01-29T16:20:52.500Z,24.00
2023-01-29T16:23:27.714Z,24.70
2023-01-29T16:25:57.320Z,23.30
2023-01-29T16:28:24.404Z,22.90
2023-01-29T16:31:02.589Z,23.00
2023-01-29T16:33:40.022Z,23.90
2023-01-29T16:36:28.111Z,24.20
2023-01-29T16:39:01.606Z,24.80
2023-01-29T16:42:10.223Z,24.60
2023-01-29T16:44:40.051Z,25.30
2023-01-29T16:47:20.745Z,24.70
2023-01-29T16:49:53.901Z,25.20
2023-01-29T16:52:31.634Z,24.10
2023-01-29T16:55:01.453Z,24.70
2023-01-29T16:57:33.680Z,24.40
2023-01-29T17:00:07.538Z,24.90
2023-01-29T17:02:38.911Z,24.80
2023-01-29T17:05:10.301Z,23.90
2023-01-29T17:07:38.108Z,24.00
2023-01-29T17:10:07.269Z,24.60
2023-01-29T17:12:36.757Z,25.00
2023-01-29T17:15:35.915Z,25.50
2023-01-29T17:18:04.491Z,24.80
2023-01-29T17:20:31.931Z,25.00
2023-01-29T17:22:58.959Z,24.50
2023-01-29T17:25:26.089Z,24.80
2023-01-29T17:27:53.373Z,23.50
2023-01-29T17:30:23.976Z,23.10
2023-01-29T17:32:51.187Z,22.50
2023-01-29T17:35:20.915Z,22.60
2023-01-29T17:37:48.621Z,23.30
2023-01-29T17:40:28.716Z,23.10
2023-01-29T17:42:55.858Z,22.80
2023-01-29T17:45:24.121Z,22.40
2023-01-29T17:47:51.225Z,22.50
2023-01-29T17:50:28.009Z,23.00
2023-01-29T17:52:55.231Z,21.90
2023-01-29T17:55:22.626Z,22.40
2023-01-29T17:57:49.642Z,22.00
2023-01-29T18:00:22.096Z,21.60
2023-01-29T18:02:49.765Z,21.40
2023-01-29T18:05:18.372Z,21.80
2023-01-29T18:07:47.193Z,22.30
2023-01-29T18:10:18.520Z,22.10
2023-01-29T18:12:46.074Z,22.20
2023-01-29T18:15:13.876Z,21.90
2023-01-29T18:17:41.926Z,22.10
2023-01-29T18:20:22.537Z,21.80
2023-01-29T18:22:49.723Z,21.50
2023-01-29T18:25:17.333Z,21.30
2023-01-29T18:27:45.344Z,21.90
2023-01-29T18:30:13.322Z,23.10
2023-01-29T18:32:40.415Z,23.00
2023-01-29T18:35:08.317Z,22.30
2023-01-29T18:37:36.363Z,21.90
2023-01-29T18:40:03.597Z,21.50
2023-01-29T18:42:34.023Z,21.30
2023-01-29T18:45:01.058Z,21.10
2023-01-29T18:47:28.166Z,21.60
2023-01-29T18:49:55.385Z,21.70
2023-01-29T18:52:22.705Z,21.40
2023-01-29T18:54:50.088Z,20.70
2023-01-29T18:58:25.525Z,20.80
2023-01-29T19:00:04.893Z,21.30
2023-01-29T19:02:32.211Z,21.00
2023-01-29T19:04:59.372Z,21.50
2023-01-29T19:07:26.610Z,21.20
2023-01-29T19:09:53.849Z,21.20
2023-01-29T19:12:22.337Z,20.80
2023-01-29T19:14:49.596Z,20.40
2023-01-29T19:17:16.931Z,20.80
2023-01-29T19:19:44.141Z,20.70
2023-01-29T19:22:11.282Z,20.70
2023-01-29T19:24:39.186Z,20.30
2023-01-29T19:27:06.926Z,20.90
2023-01-29T19:29:34.177Z,20.70
2023-01-29T19:32:01.307Z,20.40
2023-01-29T19:34:28.489Z,20.00
2023-01-29T19:36:55.697Z,19.30
2023-01-29T19:39:22.769Z,19.20
2023-01-29T19:41:49.881Z,19.60
2023-01-29T19:44:16.914Z,19.10
2023-01-29T19:46:44.023Z,18.70
2023-01-29T19:49:11.125Z,19.10
2023-01-29T19:51:40.150Z,19.20
2023-01-29T19:54:07.379Z,19.70
2023-01-29T19:56:35.542Z,19.90
2023-01-29T19:59:02.696Z,19.40
2023-01-29T20:01:29.757Z,18.90
2023-01-29T20:03:57.466Z,18.70
2023-01-29T20:06:27.944Z,19.60
2023-01-29T20:08:55.353Z,19.40
2023-01-29T20:11:23.925Z,19.00
2023-01-29T20:13:54.011Z,19.30
2023-01-29T20:16:21.899Z,18.80
2023-01-29T20:18:49.405Z,18.80
2023-01-29T20:21:20.620Z,18.60
2023-01-29T20:23:50.775Z,19.10
2023-01-29T20:26:19.668Z,20.00
2023-01-29T20:28:48.052Z,19.40
2023-01-29T20:31:15.888Z,19.20
2023-01-29T20:33:43.010Z,18.40
2023-01-29T20:36:12.401Z,18.10
2023-01-29T20:38:39.648Z,17.90
2023-01-29T20:41:15.693Z,18.40
2023-01-29T20:43:44.012Z,18.10
2023-01-29T20:46:11.619Z,17.50
2023-01-29T20:48:39.330Z,18.10
2023-01-29T20:51:10.068Z,18.60
2023-01-29T20:53:37.801Z,19.10
2023-01-29T20:56:05.591Z,19.30
2023-01-29T20:58:33.281Z,19.00
2023-01-29T21:01:00.767Z,18.30
2023-01-29T21:03:27.967Z,18.90
2023-01-29T21:06:00.162Z,19.50
2023-01-29T21:08:27.269Z,19.40
2023-01-29T21:10:54.498Z,19.30
2023-01-29T21:13:21.619Z,19.40
2023-01-29T21:15:50.973Z,19.50
2023-01-29T21:18:19.141Z,19.10
2023-01-29T21:20:48.807Z,18.60
2023-01-29T21:23:16.161Z,19.10
2023-01-29T21:25:43.259Z,19.10
2023-01-29T21:28:10.675Z,18.50
2023-01-29T21:30:38.469Z,19.00
2023-01-29T21:33:06.150Z,19.30
2023-01-29T21:35:33.480Z,19.60
2023-01-29T21:38:00.528Z,20.40
2023-01-29T21:40:27.760Z,21.30
2023-01-29T21:43:12.910Z,21.70
2023-01-29T21:45:40.693Z,19.40
2023-01-29T21:48:09.215Z,19.40
2023-01-29T21:50:36.606Z,19.80
2023-01-29T21:53:03.815Z,20.00
2023-01-29T21:55:31.068Z,19.80
2023-01-29T21:57:59.022Z,18.90
2023-01-29T22:00:26.195Z,18.60
2023-01-29T22:02:53.500Z,18.20
2023-01-29T22:05:20.711Z,18.30
2023-01-29T22:07:49.010Z,18.90
2023-01-29T22:10:18.527Z,18.90
2023-01-29T22:12:46.587Z,19.30
2023-01-29T22:15:15.124Z,19.30
2023-01-29T22:17:42.638Z,18.90
2023-01-29T22:20:12.162Z,19.40
2023-01-29T22:22:39.603Z,19.30
2023-01-29T22:25:07.006Z,19.20
2023-01-29T22:27:34.211Z,18.80
2023-01-29T22:30:01.475Z,18.50
2023-01-29T22:32:29.265Z,18.80
2023-01-29T22:34:56.446Z,18.90
2023-01-29T22:37:23.460Z,19.10
2023-01-29T22:39:50.508Z,19.20
2023-01-29T22:42:20.659Z,18.60
2023-01-29T22:44:48.760Z,19.20
2023-01-29T22:47:16.209Z,19.90
2023-01-29T22:49:45.880Z,19.50
2023-01-29T22:52:13.849Z,20.30
2023-01-29T22:54:42.950Z,20.30
2023-01-29T22:57:12.217Z,20.00
2023-01-29T22:59:39.425Z,19.30
2023-01-29T23:02:07.548Z,18.80
2023-01-29T23:04:34.762Z,18.80
2023-01-29T23:07:01.867Z,19.00
2023-01-29T23:09:28.957Z,18.20
2023-01-29T23:11:56.026Z,19.20
2023-01-29T23:14:23.372Z,18.80
2023-01-29T23:16:50.464Z,18.40
2023-01-29T23:19:17.745Z,19.00
2023-01-29T23:21:44.793Z,20.30
2023-01-29T23:24:12.221Z,20.30
2023-01-29T23:26:57.977Z,20.00
2023-01-29T23:29:25.024Z,20.40
2023-01-29T23:31:52.053Z,19.50
2023-01-29T23:34:19.451Z,19.40
2023-01-29T23:36:46.951Z,18.50
2023-01-29T23:39:14.097Z,18.50
2023-01-29T23:41:41.252Z,19.00
2023-01-29T23:44:08.524Z,18.10
2023-01-29T23:46:35.676Z,18.40
2023-01-29T23:49:02.922Z,18.40
2023-01-29T23:51:30.461Z,18.60
2023-01-29T23:53:57.714Z,18.20
2023-01-29T23:56:25.547Z,18.40
2023-01-29T23:58:56.645Z,18.20
